sensor_id;sensor_type;location;lat;lon;timestamp;temperature;humidity
28524;DHT22;15734;50.904;6.922;2022-08-19T00:00:16;18.30;99.90
28524;DHT22;15734;50.904;6.922;2022-08-19T00:02:43;18.30;99.90
28524;DHT22;15734;50.904;6.922;2022-08-19T00:05:10;18.20;99.90
28524;DHT22;15734;50.904;6.922;2022-08-19T00:07:36;18.20;99.90
28524;DHT22;15734;50.904;6.922;2022-08-19T00:10:04;18.30;99.90
28524;DHT22;15734;50.904;6.922;2022-08-19T00:12:30;18.20;99.90
28524;DHT22;15734;50.904;6.922;2022-08-19T00:14:55;18.20;99.90
28524;DHT22;15734;50.904;6.922;2022-08-19T00:17:21;18.20;99.90
28524;DHT22;15734;50.904;6.922;2022-08-19T00:19:46;18.20;99.90
28524;DHT22;15734;50.904;6.922;2022-08-19T00:22:12;18.20;99.90
28524;DHT22;15734;50.904;6.922;2022-08-19T00:24:38;18.20;99.90
28524;DHT22;15734;50.904;6.922;2022-08-19T00:27:04;18.20;99.90
28524;DHT22;15734;50.904;6.922;2022-08-19T00:29:30;18.10;99.90
28524;DHT22;15734;50.904;6.922;2022-08-19T00:31:57;18.10;99.90
28524;DHT22;15734;50.904;6.922;2022-08-19T00:34:24;18.10;99.90
28524;DHT22;15734;50.904;6.922;2022-08-19T00:36:55;18.10;99.90
28524;DHT22;15734;50.904;6.922;2022-08-19T00:39:21;18.00;99.90
28524;DHT22;15734;50.904;6.922;2022-08-19T00:41:47;18.00;99.90
28524;DHT22;15734;50.904;6.922;2022-08-19T00:44:16;18.00;99.90
28524;DHT22;15734;50.904;6.922;2022-08-19T00:46:44;18.10;99.90
28524;DHT22;15734;50.904;6.922;2022-08-19T00:49:18;18.10;99.90
28524;DHT22;15734;50.904;6.922;2022-08-19T00:51:47;18.20;99.90
28524;DHT22;15734;50.904;6.922;2022-08-19T00:54:13;18.30;99.90
28524;DHT22;15734;50.904;6.922;2022-08-19T00:56:40;18.30;99.90
28524;DHT22;15734;50.904;6.922;2022-08-19T00:59:06;18.40;99.90
28524;DHT22;15734;50.904;6.922;2022-08-19T01:01:36;18.40;99.90
28524;DHT22;15734;50.904;6.922;2022-08-19T01:04:02;18.50;99.90
28524;DHT22;15734;50.904;6.922;2022-08-19T01:06:28;18.40;99.90
28524;DHT22;15734;50.904;6.922;2022-08-19T01:08:56;18.50;99.90
28524;DHT22;15734;50.904;6.922;2022-08-19T01:11:22;18.50;99.90
28524;DHT22;15734;50.904;6.922;2022-08-19T01:13:48;18.50;99.90
28524;DHT22;15734;50.904;6.922;2022-08-19T01:16:15;18.50;99.90
28524;DHT22;15734;50.904;6.922;2022-08-19T01:18:42;18.40;99.90
28524;DHT22;15734;50.904;6.922;2022-08-19T01:21:32;18.40;99.90
28524;DHT22;15734;50.904;6.922;2022-08-19T01:23:57;18.50;99.90
28524;DHT22;15734;50.904;6.922;2022-08-19T01:26:24;18.40;99.90
28524;DHT22;15734;50.904;6.922;2022-08-19T01:28:52;18.40;99.90
28524;DHT22;15734;50.904;6.922;2022-08-19T01:31:21;18.40;99.90
28524;DHT22;15734;50.904;6.922;2022-08-19T01:33:48;18.40;99.90
28524;DHT22;15734;50.904;6.922;2022-08-19T01:36:21;18.50;99.90
28524;DHT22;15734;50.904;6.922;2022-08-19T01:38:47;18.50;99.90
28524;DHT22;15734;50.904;6.922;2022-08-19T01:41:13;18.30;99.90
28524;DHT22;15734;50.904;6.922;2022-08-19T01:43:39;18.30;99.90
28524;DHT22;15734;50.904;6.922;2022-08-19T01:46:05;18.30;99.90
28524;DHT22;15734;50.904;6.922;2022-08-19T01:48:39;18.20;99.90
28524;DHT22;15734;50.904;6.922;2022-08-19T01:51:05;18.10;99.90
28524;DHT22;15734;50.904;6.922;2022-08-19T01:53:32;18.00;99.90
28524;DHT22;15734;50.904;6.922;2022-08-19T01:55:58;18.00;99.90
28524;DHT22;15734;50.904;6.922;2022-08-19T01:58:29;17.90;99.90
28524;DHT22;15734;50.904;6.922;2022-08-19T02:00:56;17.80;99.90
28524;DHT22;15734;50.904;6.922;2022-08-19T02:03:22;17.70;99.90
28524;DHT22;15734;50.904;6.922;2022-08-19T02:05:57;17.60;99.90
28524;DHT22;15734;50.904;6.922;2022-08-19T02:08:24;17.50;99.90
28524;DHT22;15734;50.904;6.922;2022-08-19T02:10:49;17.50;99.90
28524;DHT22;15734;50.904;6.922;2022-08-19T02:13:15;17.50;99.90
28524;DHT22;15734;50.904;6.922;2022-08-19T02:15:41;17.50;99.90
28524;DHT22;15734;50.904;6.922;2022-08-19T02:18:07;17.40;99.90
28524;DHT22;15734;50.904;6.922;2022-08-19T02:20:33;17.50;99.90
28524;DHT22;15734;50.904;6.922;2022-08-19T02:22:59;17.40;99.90
28524;DHT22;15734;50.904;6.922;2022-08-19T02:25:26;17.40;99.90
28524;DHT22;15734;50.904;6.922;2022-08-19T02:27:52;17.40;99.90
28524;DHT22;15734;50.904;6.922;2022-08-19T02:30:18;17.40;99.90
28524;DHT22;15734;50.904;6.922;2022-08-19T02:32:44;17.30;99.90
28524;DHT22;15734;50.904;6.922;2022-08-19T02:35:11;17.30;99.90
28524;DHT22;15734;50.904;6.922;2022-08-19T02:37:36;17.30;99.90
28524;DHT22;15734;50.904;6.922;2022-08-19T02:40:20;17.30;99.90
28524;DHT22;15734;50.904;6.922;2022-08-19T02:42:46;17.30;99.90
28524;DHT22;15734;50.904;6.922;2022-08-19T02:45:13;17.30;99.90
28524;DHT22;15734;50.904;6.922;2022-08-19T02:47:39;17.20;99.90
28524;DHT22;15734;50.904;6.922;2022-08-19T02:50:06;17.20;99.90
28524;DHT22;15734;50.904;6.922;2022-08-19T02:52:33;17.20;99.90
28524;DHT22;15734;50.904;6.922;2022-08-19T02:54:59;17.10;99.90
28524;DHT22;15734;50.904;6.922;2022-08-19T02:57:25;17.10;99.90
28524;DHT22;15734;50.904;6.922;2022-08-19T02:59:51;17.10;99.90
28524;DHT22;15734;50.904;6.922;2022-08-19T03:02:17;17.10;99.90
28524;DHT22;15734;50.904;6.922;2022-08-19T03:04:42;17.20;99.90
28524;DHT22;15734;50.904;6.922;2022-08-19T03:07:08;17.20;99.90
28524;DHT22;15734;50.904;6.922;2022-08-19T03:09:37;17.10;99.90
28524;DHT22;15734;50.904;6.922;2022-08-19T03:12:04;17.10;99.90
28524;DHT22;15734;50.904;6.922;2022-08-19T03:14:33;17.10;99.90
28524;DHT22;15734;50.904;6.922;2022-08-19T03:16:59;17.00;99.90
28524;DHT22;15734;50.904;6.922;2022-08-19T03:19:25;17.00;99.90
28524;DHT22;15734;50.904;6.922;2022-08-19T03:21:51;17.00;99.90
28524;DHT22;15734;50.904;6.922;2022-08-19T03:24:18;17.00;99.90
28524;DHT22;15734;50.904;6.922;2022-08-19T03:26:49;17.00;99.90
28524;DHT22;15734;50.904;6.922;2022-08-19T03:29:17;16.90;99.90
28524;DHT22;15734;50.904;6.922;2022-08-19T03:31:43;16.90;99.90
28524;DHT22;15734;50.904;6.922;2022-08-19T03:34:25;16.90;99.90
28524;DHT22;15734;50.904;6.922;2022-08-19T03:36:52;17.00;99.90
28524;DHT22;15734;50.904;6.922;2022-08-19T03:39:19;16.90;99.90
28524;DHT22;15734;50.904;6.922;2022-08-19T03:41:47;16.90;99.90
28524;DHT22;15734;50.904;6.922;2022-08-19T03:44:17;16.90;99.90
28524;DHT22;15734;50.904;6.922;2022-08-19T03:46:47;16.90;99.90
28524;DHT22;15734;50.904;6.922;2022-08-19T03:49:13;16.80;99.90
28524;DHT22;15734;50.904;6.922;2022-08-19T03:51:38;16.80;99.90
28524;DHT22;15734;50.904;6.922;2022-08-19T03:54:07;16.80;99.90
28524;DHT22;15734;50.904;6.922;2022-08-19T03:56:35;16.80;99.90
28524;DHT22;15734;50.904;6.922;2022-08-19T03:59:01;16.70;99.90
28524;DHT22;15734;50.904;6.922;2022-08-19T04:01:27;16.70;99.90
28524;DHT22;15734;50.904;6.922;2022-08-19T04:03:53;16.70;99.90
28524;DHT22;15734;50.904;6.922;2022-08-19T04:06:22;16.70;99.90
28524;DHT22;15734;50.904;6.922;2022-08-19T04:08:50;16.70;99.90
28524;DHT22;15734;50.904;6.922;2022-08-19T04:11:19;16.70;99.90
28524;DHT22;15734;50.904;6.922;2022-08-19T04:13:48;16.70;99.90
28524;DHT22;15734;50.904;6.922;2022-08-19T04:16:17;16.70;99.90
28524;DHT22;15734;50.904;6.922;2022-08-19T04:18:43;16.70;99.90
28524;DHT22;15734;50.904;6.922;2022-08-19T04:21:16;16.70;99.90
28524;DHT22;15734;50.904;6.922;2022-08-19T04:23:42;16.70;99.90
28524;DHT22;15734;50.904;6.922;2022-08-19T04:26:13;16.80;99.90
28524;DHT22;15734;50.904;6.922;2022-08-19T04:28:39;16.80;99.90
28524;DHT22;15734;50.904;6.922;2022-08-19T04:31:05;16.90;99.90
28524;DHT22;15734;50.904;6.922;2022-08-19T04:33:30;16.90;99.90
28524;DHT22;15734;50.904;6.922;2022-08-19T04:35:56;17.00;99.90
28524;DHT22;15734;50.904;6.922;2022-08-19T04:38:23;16.90;99.90
28524;DHT22;15734;50.904;6.922;2022-08-19T04:40:50;17.00;99.90
28524;DHT22;15734;50.904;6.922;2022-08-19T04:43:37;17.10;99.90
28524;DHT22;15734;50.904;6.922;2022-08-19T04:46:11;17.10;99.90
28524;DHT22;15734;50.904;6.922;2022-08-19T04:48:37;17.20;99.90
28524;DHT22;15734;50.904;6.922;2022-08-19T04:51:07;17.10;99.90
28524;DHT22;15734;50.904;6.922;2022-08-19T04:53:35;17.10;99.90
28524;DHT22;15734;50.904;6.922;2022-08-19T04:56:15;17.10;99.90
28524;DHT22;15734;50.904;6.922;2022-08-19T04:58:43;17.10;99.90
28524;DHT22;15734;50.904;6.922;2022-08-19T05:01:12;17.10;99.90
28524;DHT22;15734;50.904;6.922;2022-08-19T05:03:38;17.10;99.90
28524;DHT22;15734;50.904;6.922;2022-08-19T05:06:10;17.10;99.90
28524;DHT22;15734;50.904;6.922;2022-08-19T05:08:38;17.10;99.90
28524;DHT22;15734;50.904;6.922;2022-08-19T05:11:14;17.20;99.90
28524;DHT22;15734;50.904;6.922;2022-08-19T05:13:40;17.20;99.90
28524;DHT22;15734;50.904;6.922;2022-08-19T05:16:06;17.20;99.90
28524;DHT22;15734;50.904;6.922;2022-08-19T05:18:32;17.20;99.90
28524;DHT22;15734;50.904;6.922;2022-08-19T05:21:18;17.30;99.90
28524;DHT22;15734;50.904;6.922;2022-08-19T05:24:04;17.40;99.90
28524;DHT22;15734;50.904;6.922;2022-08-19T05:26:32;17.50;99.90
28524;DHT22;15734;50.904;6.922;2022-08-19T05:28:58;17.70;99.90
28524;DHT22;15734;50.904;6.922;2022-08-19T05:31:23;17.80;99.90
28524;DHT22;15734;50.904;6.922;2022-08-19T05:33:49;18.00;99.90
28524;DHT22;15734;50.904;6.922;2022-08-19T05:36:15;18.10;99.90
28524;DHT22;15734;50.904;6.922;2022-08-19T05:38:41;18.20;99.90
28524;DHT22;15734;50.904;6.922;2022-08-19T05:41:12;18.30;99.90
28524;DHT22;15734;50.904;6.922;2022-08-19T05:43:37;18.40;99.90
28524;DHT22;15734;50.904;6.922;2022-08-19T05:46:07;18.40;99.90
28524;DHT22;15734;50.904;6.922;2022-08-19T05:48:34;18.40;99.90
28524;DHT22;15734;50.904;6.922;2022-08-19T05:51:07;18.50;99.90
28524;DHT22;15734;50.904;6.922;2022-08-19T05:53:33;18.40;99.90
28524;DHT22;15734;50.904;6.922;2022-08-19T05:56:10;18.40;99.90
28524;DHT22;15734;50.904;6.922;2022-08-19T05:58:37;18.40;99.90
28524;DHT22;15734;50.904;6.922;2022-08-19T06:01:04;18.40;99.90
28524;DHT22;15734;50.904;6.922;2022-08-19T06:03:34;18.40;99.90
28524;DHT22;15734;50.904;6.922;2022-08-19T06:06:00;18.40;99.90
28524;DHT22;15734;50.904;6.922;2022-08-19T06:08:26;18.40;99.90
28524;DHT22;15734;50.904;6.922;2022-08-19T06:10:53;18.50;99.90
28524;DHT22;15734;50.904;6.922;2022-08-19T06:13:18;18.60;99.90
28524;DHT22;15734;50.904;6.922;2022-08-19T06:15:45;18.60;99.90
28524;DHT22;15734;50.904;6.922;2022-08-19T06:18:12;18.60;99.90
28524;DHT22;15734;50.904;6.922;2022-08-19T06:20:38;18.70;99.90
28524;DHT22;15734;50.904;6.922;2022-08-19T06:23:03;18.80;99.90
28524;DHT22;15734;50.904;6.922;2022-08-19T06:25:29;18.80;99.90
28524;DHT22;15734;50.904;6.922;2022-08-19T06:27:55;18.90;99.90
28524;DHT22;15734;50.904;6.922;2022-08-19T06:30:21;19.00;99.90
28524;DHT22;15734;50.904;6.922;2022-08-19T06:32:46;19.00;99.90
28524;DHT22;15734;50.904;6.922;2022-08-19T06:35:12;19.00;99.90
28524;DHT22;15734;50.904;6.922;2022-08-19T06:37:40;19.10;99.90
28524;DHT22;15734;50.904;6.922;2022-08-19T06:40:06;19.10;99.90
28524;DHT22;15734;50.904;6.922;2022-08-19T06:42:34;19.20;99.90
28524;DHT22;15734;50.904;6.922;2022-08-19T06:45:00;19.30;99.90
28524;DHT22;15734;50.904;6.922;2022-08-19T06:47:29;19.40;99.90
28524;DHT22;15734;50.904;6.922;2022-08-19T06:49:56;19.40;99.90
28524;DHT22;15734;50.904;6.922;2022-08-19T06:52:25;19.50;99.90
28524;DHT22;15734;50.904;6.922;2022-08-19T06:54:50;19.50;99.90
28524;DHT22;15734;50.904;6.922;2022-08-19T06:57:16;19.60;99.90
28524;DHT22;15734;50.904;6.922;2022-08-19T06:59:42;19.60;99.90
28524;DHT22;15734;50.904;6.922;2022-08-19T07:02:07;19.80;99.90
28524;DHT22;15734;50.904;6.922;2022-08-19T07:04:35;19.90;99.90
28524;DHT22;15734;50.904;6.922;2022-08-19T07:07:04;19.90;99.90
28524;DHT22;15734;50.904;6.922;2022-08-19T07:09:33;19.90;99.90
28524;DHT22;15734;50.904;6.922;2022-08-19T07:11:59;20.00;99.90
28524;DHT22;15734;50.904;6.922;2022-08-19T07:14:26;20.10;99.90
28524;DHT22;15734;50.904;6.922;2022-08-19T07:16:54;20.20;99.90
28524;DHT22;15734;50.904;6.922;2022-08-19T07:19:21;20.20;99.90
28524;DHT22;15734;50.904;6.922;2022-08-19T07:21:49;20.30;99.90
28524;DHT22;15734;50.904;6.922;2022-08-19T07:24:15;20.30;99.90
28524;DHT22;15734;50.904;6.922;2022-08-19T07:26:43;20.40;99.90
28524;DHT22;15734;50.904;6.922;2022-08-19T07:29:10;20.50;99.90
28524;DHT22;15734;50.904;6.922;2022-08-19T07:31:35;20.50;99.90
28524;DHT22;15734;50.904;6.922;2022-08-19T07:34:04;20.50;99.90
28524;DHT22;15734;50.904;6.922;2022-08-19T07:36:36;20.40;99.90
28524;DHT22;15734;50.904;6.922;2022-08-19T07:39:06;20.50;99.90
28524;DHT22;15734;50.904;6.922;2022-08-19T07:41:32;20.50;99.90
28524;DHT22;15734;50.904;6.922;2022-08-19T07:43:59;20.50;99.90
28524;DHT22;15734;50.904;6.922;2022-08-19T07:46:32;20.50;99.90
28524;DHT22;15734;50.904;6.922;2022-08-19T07:48:58;20.50;99.90
28524;DHT22;15734;50.904;6.922;2022-08-19T07:51:24;20.50;99.90
28524;DHT22;15734;50.904;6.922;2022-08-19T07:53:50;20.50;99.90
28524;DHT22;15734;50.904;6.922;2022-08-19T07:56:17;20.40;99.90
28524;DHT22;15734;50.904;6.922;2022-08-19T07:58:44;20.40;99.90
28524;DHT22;15734;50.904;6.922;2022-08-19T08:01:17;20.40;99.90
28524;DHT22;15734;50.904;6.922;2022-08-19T08:03:42;20.30;99.90
28524;DHT22;15734;50.904;6.922;2022-08-19T08:06:27;20.40;99.90
28524;DHT22;15734;50.904;6.922;2022-08-19T08:09:12;20.40;99.90
28524;DHT22;15734;50.904;6.922;2022-08-19T08:14:30;20.50;99.90
28524;DHT22;15734;50.904;6.922;2022-08-19T08:16:57;20.70;99.90
28524;DHT22;15734;50.904;6.922;2022-08-19T08:19:24;20.80;99.90
28524;DHT22;15734;50.904;6.922;2022-08-19T08:21:51;20.80;99.90
28524;DHT22;15734;50.904;6.922;2022-08-19T08:24:17;20.90;99.90
28524;DHT22;15734;50.904;6.922;2022-08-19T08:26:43;20.90;99.90
28524;DHT22;15734;50.904;6.922;2022-08-19T08:29:12;20.90;99.90
28524;DHT22;15734;50.904;6.922;2022-08-19T08:31:40;21.00;99.90
28524;DHT22;15734;50.904;6.922;2022-08-19T08:34:06;21.10;99.90
28524;DHT22;15734;50.904;6.922;2022-08-19T08:36:32;21.10;99.90
28524;DHT22;15734;50.904;6.922;2022-08-19T08:39:00;21.10;99.90
28524;DHT22;15734;50.904;6.922;2022-08-19T08:44:20;21.30;99.90
28524;DHT22;15734;50.904;6.922;2022-08-19T08:46:49;21.50;99.90
28524;DHT22;15734;50.904;6.922;2022-08-19T08:49:24;21.60;99.90
28524;DHT22;15734;50.904;6.922;2022-08-19T08:52:00;21.60;99.90
28524;DHT22;15734;50.904;6.922;2022-08-19T08:54:35;21.70;99.90
28524;DHT22;15734;50.904;6.922;2022-08-19T08:57:04;21.70;99.90
28524;DHT22;15734;50.904;6.922;2022-08-19T08:59:31;21.80;99.90
28524;DHT22;15734;50.904;6.922;2022-08-19T09:01:59;21.90;99.90
28524;DHT22;15734;50.904;6.922;2022-08-19T09:04:24;22.10;99.90
28524;DHT22;15734;50.904;6.922;2022-08-19T09:07:21;22.30;99.90
28524;DHT22;15734;50.904;6.922;2022-08-19T09:09:51;22.50;99.90
28524;DHT22;15734;50.904;6.922;2022-08-19T09:12:43;22.60;99.90
28524;DHT22;15734;50.904;6.922;2022-08-19T09:15:12;22.60;99.90
28524;DHT22;15734;50.904;6.922;2022-08-19T09:17:38;22.60;99.90
28524;DHT22;15734;50.904;6.922;2022-08-19T09:22:35;22.80;99.90
28524;DHT22;15734;50.904;6.922;2022-08-19T09:25:01;22.80;99.90
28524;DHT22;15734;50.904;6.922;2022-08-19T09:27:29;22.90;99.90
28524;DHT22;15734;50.904;6.922;2022-08-19T09:29:55;23.10;99.90
28524;DHT22;15734;50.904;6.922;2022-08-19T09:32:21;23.20;99.90
28524;DHT22;15734;50.904;6.922;2022-08-19T09:34:47;23.20;99.90
28524;DHT22;15734;50.904;6.922;2022-08-19T09:37:13;23.20;99.90
28524;DHT22;15734;50.904;6.922;2022-08-19T09:39:40;23.30;99.90
28524;DHT22;15734;50.904;6.922;2022-08-19T09:42:07;23.40;99.90
28524;DHT22;15734;50.904;6.922;2022-08-19T09:44:39;23.60;99.90
28524;DHT22;15734;50.904;6.922;2022-08-19T09:47:05;23.60;99.90
28524;DHT22;15734;50.904;6.922;2022-08-19T09:49:32;23.70;99.90
28524;DHT22;15734;50.904;6.922;2022-08-19T09:51:58;23.70;99.90
28524;DHT22;15734;50.904;6.922;2022-08-19T09:54:24;23.70;99.90
28524;DHT22;15734;50.904;6.922;2022-08-19T09:56:50;23.70;99.90
28524;DHT22;15734;50.904;6.922;2022-08-19T09:59:15;23.90;99.90
28524;DHT22;15734;50.904;6.922;2022-08-19T10:01:41;24.00;99.90
28524;DHT22;15734;50.904;6.922;2022-08-19T10:04:07;24.00;99.90
28524;DHT22;15734;50.904;6.922;2022-08-19T10:06:37;24.10;99.90
28524;DHT22;15734;50.904;6.922;2022-08-19T10:09:06;24.30;99.90
28524;DHT22;15734;50.904;6.922;2022-08-19T10:11:33;24.50;99.90
28524;DHT22;15734;50.904;6.922;2022-08-19T10:14:01;24.40;99.90
28524;DHT22;15734;50.904;6.922;2022-08-19T10:16:27;24.60;99.90
28524;DHT22;15734;50.904;6.922;2022-08-19T10:18:53;24.60;99.90
28524;DHT22;15734;50.904;6.922;2022-08-19T10:21:25;24.70;99.90
28524;DHT22;15734;50.904;6.922;2022-08-19T10:23:54;25.00;99.90
28524;DHT22;15734;50.904;6.922;2022-08-19T10:26:29;25.20;99.90
28524;DHT22;15734;50.904;6.922;2022-08-19T10:28:56;25.20;99.90
28524;DHT22;15734;50.904;6.922;2022-08-19T10:31:24;25.30;99.90
28524;DHT22;15734;50.904;6.922;2022-08-19T10:33:52;25.60;99.90
28524;DHT22;15734;50.904;6.922;2022-08-19T10:36:27;25.60;99.90
28524;DHT22;15734;50.904;6.922;2022-08-19T10:38:56;25.50;99.90
28524;DHT22;15734;50.904;6.922;2022-08-19T10:41:26;25.50;99.90
28524;DHT22;15734;50.904;6.922;2022-08-19T10:43:53;25.50;99.90
28524;DHT22;15734;50.904;6.922;2022-08-19T10:46:21;26.10;99.90
28524;DHT22;15734;50.904;6.922;2022-08-19T10:48:47;26.00;99.90
28524;DHT22;15734;50.904;6.922;2022-08-19T10:51:14;25.40;99.90
28524;DHT22;15734;50.904;6.922;2022-08-19T10:53:59;25.20;99.90
28524;DHT22;15734;50.904;6.922;2022-08-19T10:56:25;25.30;99.90
28524;DHT22;15734;50.904;6.922;2022-08-19T10:59:10;25.10;99.90
28524;DHT22;15734;50.904;6.922;2022-08-19T11:01:37;25.30;99.90
28524;DHT22;15734;50.904;6.922;2022-08-19T11:04:04;25.70;99.90
28524;DHT22;15734;50.904;6.922;2022-08-19T11:06:32;25.60;99.90
28524;DHT22;15734;50.904;6.922;2022-08-19T11:08:58;25.40;99.90
28524;DHT22;15734;50.904;6.922;2022-08-19T11:11:25;25.50;99.90
28524;DHT22;15734;50.904;6.922;2022-08-19T11:13:51;25.70;99.90
28524;DHT22;15734;50.904;6.922;2022-08-19T11:16:22;25.50;99.90
28524;DHT22;15734;50.904;6.922;2022-08-19T11:18:51;25.40;99.90
28524;DHT22;15734;50.904;6.922;2022-08-19T11:23:46;25.80;99.90
28524;DHT22;15734;50.904;6.922;2022-08-19T11:26:13;26.20;99.90
28524;DHT22;15734;50.904;6.922;2022-08-19T11:28:40;26.50;99.90
28524;DHT22;15734;50.904;6.922;2022-08-19T11:31:13;26.30;99.90
28524;DHT22;15734;50.904;6.922;2022-08-19T11:33:39;26.30;99.90
28524;DHT22;15734;50.904;6.922;2022-08-19T11:36:05;26.50;99.90
28524;DHT22;15734;50.904;6.922;2022-08-19T11:38:33;26.30;99.90
28524;DHT22;15734;50.904;6.922;2022-08-19T11:41:04;26.10;99.90
28524;DHT22;15734;50.904;6.922;2022-08-19T11:43:30;25.90;99.90
28524;DHT22;15734;50.904;6.922;2022-08-19T11:45:57;25.80;99.90
28524;DHT22;15734;50.904;6.922;2022-08-19T11:48:24;25.70;99.90
28524;DHT22;15734;50.904;6.922;2022-08-19T11:50:51;25.50;99.90
28524;DHT22;15734;50.904;6.922;2022-08-19T11:53:18;25.20;99.90
28524;DHT22;15734;50.904;6.922;2022-08-19T11:55:46;25.20;99.90
28524;DHT22;15734;50.904;6.922;2022-08-19T11:58:12;25.40;99.90
28524;DHT22;15734;50.904;6.922;2022-08-19T12:00:39;25.90;99.90
28524;DHT22;15734;50.904;6.922;2022-08-19T12:03:05;26.40;99.90
28524;DHT22;15734;50.904;6.922;2022-08-19T12:05:31;26.50;99.90
28524;DHT22;15734;50.904;6.922;2022-08-19T12:07:56;26.50;99.90
28524;DHT22;15734;50.904;6.922;2022-08-19T12:10:22;26.50;99.90
28524;DHT22;15734;50.904;6.922;2022-08-19T12:12:48;26.60;99.90
28524;DHT22;15734;50.904;6.922;2022-08-19T12:15:14;27.00;99.90
28524;DHT22;15734;50.904;6.922;2022-08-19T12:17:43;27.30;99.90
28524;DHT22;15734;50.904;6.922;2022-08-19T12:20:11;27.50;99.90
28524;DHT22;15734;50.904;6.922;2022-08-19T12:22:39;27.50;99.90
28524;DHT22;15734;50.904;6.922;2022-08-19T12:25:08;27.70;99.90
28524;DHT22;15734;50.904;6.922;2022-08-19T12:27:34;28.10;99.90
28524;DHT22;15734;50.904;6.922;2022-08-19T12:30:02;28.00;99.90
28524;DHT22;15734;50.904;6.922;2022-08-19T12:32:28;28.20;99.90
28524;DHT22;15734;50.904;6.922;2022-08-19T12:34:54;28.10;99.90
28524;DHT22;15734;50.904;6.922;2022-08-19T12:37:20;28.10;99.90
28524;DHT22;15734;50.904;6.922;2022-08-19T12:39:45;28.20;99.90
28524;DHT22;15734;50.904;6.922;2022-08-19T12:42:13;28.40;99.90
28524;DHT22;15734;50.904;6.922;2022-08-19T12:44:40;27.90;99.90
28524;DHT22;15734;50.904;6.922;2022-08-19T12:47:07;27.50;99.90
28524;DHT22;15734;50.904;6.922;2022-08-19T12:49:34;27.20;99.90
28524;DHT22;15734;50.904;6.922;2022-08-19T12:52:05;27.20;99.90
28524;DHT22;15734;50.904;6.922;2022-08-19T12:54:30;27.10;99.90
28524;DHT22;15734;50.904;6.922;2022-08-19T12:56:57;27.40;99.90
28524;DHT22;15734;50.904;6.922;2022-08-19T12:59:23;27.90;99.90
28524;DHT22;15734;50.904;6.922;2022-08-19T13:01:49;28.20;99.90
28524;DHT22;15734;50.904;6.922;2022-08-19T13:04:14;28.50;99.90
28524;DHT22;15734;50.904;6.922;2022-08-19T13:06:41;28.40;99.90
28524;DHT22;15734;50.904;6.922;2022-08-19T13:09:07;28.30;99.90
28524;DHT22;15734;50.904;6.922;2022-08-19T13:11:33;28.80;99.90
28524;DHT22;15734;50.904;6.922;2022-08-19T13:14:00;29.10;99.90
28524;DHT22;15734;50.904;6.922;2022-08-19T13:16:26;29.20;99.90
28524;DHT22;15734;50.904;6.922;2022-08-19T13:18:54;28.90;99.90
28524;DHT22;15734;50.904;6.922;2022-08-19T13:21:22;29.10;99.90
28524;DHT22;15734;50.904;6.922;2022-08-19T13:23:50;28.80;99.90
28524;DHT22;15734;50.904;6.922;2022-08-19T13:26:17;28.70;99.90
28524;DHT22;15734;50.904;6.922;2022-08-19T13:28:43;28.90;99.90
28524;DHT22;15734;50.904;6.922;2022-08-19T13:31:41;29.20;99.90
28524;DHT22;15734;50.904;6.922;2022-08-19T13:34:33;29.00;99.90
28524;DHT22;15734;50.904;6.922;2022-08-19T13:37:01;29.10;99.90
28524;DHT22;15734;50.904;6.922;2022-08-19T13:39:29;29.30;99.90
28524;DHT22;15734;50.904;6.922;2022-08-19T13:41:55;29.50;99.90
28524;DHT22;15734;50.904;6.922;2022-08-19T13:44:21;29.40;99.90
28524;DHT22;15734;50.904;6.922;2022-08-19T13:46:48;29.80;99.90
28524;DHT22;15734;50.904;6.922;2022-08-19T13:49:14;29.70;99.90
28524;DHT22;15734;50.904;6.922;2022-08-19T13:51:41;29.80;99.90
28524;DHT22;15734;50.904;6.922;2022-08-19T13:54:08;29.60;99.90
28524;DHT22;15734;50.904;6.922;2022-08-19T13:56:35;29.40;99.90
28524;DHT22;15734;50.904;6.922;2022-08-19T13:59:01;29.50;99.90
28524;DHT22;15734;50.904;6.922;2022-08-19T14:01:27;29.70;99.50
28524;DHT22;15734;50.904;6.922;2022-08-19T14:03:53;29.80;98.80
28524;DHT22;15734;50.904;6.922;2022-08-19T14:06:19;29.70;99.10
28524;DHT22;15734;50.904;6.922;2022-08-19T14:08:45;29.80;98.10
28524;DHT22;15734;50.904;6.922;2022-08-19T14:11:11;29.40;97.70
28524;DHT22;15734;50.904;6.922;2022-08-19T14:13:36;29.20;98.10
28524;DHT22;15734;50.904;6.922;2022-08-19T14:16:09;29.10;98.80
28524;DHT22;15734;50.904;6.922;2022-08-19T14:18:36;29.20;99.20
28524;DHT22;15734;50.904;6.922;2022-08-19T14:21:01;29.40;98.80
28524;DHT22;15734;50.904;6.922;2022-08-19T14:23:28;29.60;98.00
28524;DHT22;15734;50.904;6.922;2022-08-19T14:26:06;29.60;98.20
28524;DHT22;15734;50.904;6.922;2022-08-19T14:28:32;29.70;98.70
28524;DHT22;15734;50.904;6.922;2022-08-19T14:30:58;30.00;97.70
28524;DHT22;15734;50.904;6.922;2022-08-19T14:33:23;30.00;97.60
28524;DHT22;15734;50.904;6.922;2022-08-19T14:35:49;30.00;97.40
28524;DHT22;15734;50.904;6.922;2022-08-19T14:38:17;29.70;98.00
28524;DHT22;15734;50.904;6.922;2022-08-19T14:40:42;29.70;97.50
28524;DHT22;15734;50.904;6.922;2022-08-19T14:43:08;29.60;97.70
28524;DHT22;15734;50.904;6.922;2022-08-19T14:45:36;29.60;97.70
28524;DHT22;15734;50.904;6.922;2022-08-19T14:48:06;29.80;97.20
28524;DHT22;15734;50.904;6.922;2022-08-19T14:50:32;29.80;97.30
28524;DHT22;15734;50.904;6.922;2022-08-19T14:53:00;30.00;98.20
28524;DHT22;15734;50.904;6.922;2022-08-19T14:55:26;30.20;97.20
28524;DHT22;15734;50.904;6.922;2022-08-19T14:57:52;30.40;97.20
28524;DHT22;15734;50.904;6.922;2022-08-19T15:00:17;30.60;96.30
28524;DHT22;15734;50.904;6.922;2022-08-19T15:02:43;30.40;95.40
28524;DHT22;15734;50.904;6.922;2022-08-19T15:05:12;30.10;94.40
28524;DHT22;15734;50.904;6.922;2022-08-19T15:07:39;30.10;95.00
28524;DHT22;15734;50.904;6.922;2022-08-19T15:10:06;30.00;95.30
28524;DHT22;15734;50.904;6.922;2022-08-19T15:12:34;30.10;96.00
28524;DHT22;15734;50.904;6.922;2022-08-19T15:15:00;30.20;95.70
28524;DHT22;15734;50.904;6.922;2022-08-19T15:17:26;30.30;94.10
28524;DHT22;15734;50.904;6.922;2022-08-19T15:19:51;30.10;93.40
28524;DHT22;15734;50.904;6.922;2022-08-19T15:22:17;30.00;93.20
28524;DHT22;15734;50.904;6.922;2022-08-19T15:24:43;30.00;92.90
28524;DHT22;15734;50.904;6.922;2022-08-19T15:27:12;30.10;92.90
28524;DHT22;15734;50.904;6.922;2022-08-19T15:29:38;30.00;93.40
28524;DHT22;15734;50.904;6.922;2022-08-19T15:32:05;29.80;93.60
28524;DHT22;15734;50.904;6.922;2022-08-19T15:34:31;29.80;93.90
28524;DHT22;15734;50.904;6.922;2022-08-19T15:36:57;29.80;94.00
28524;DHT22;15734;50.904;6.922;2022-08-19T15:39:24;29.80;94.10
28524;DHT22;15734;50.904;6.922;2022-08-19T15:41:50;29.70;94.10
28524;DHT22;15734;50.904;6.922;2022-08-19T15:44:18;29.60;93.80